sensor_id;sensor_type;location;lat;lon;timestamp;pressure;altitude;pressure_sealevel;temperature;humidity
41898;BME280;27576;53.366;-1.498;2023-07-29T00:00:19;98910.25;;;16.39;100.00
41898;BME280;27576;53.366;-1.498;2023-07-29T00:02:45;98937.75;;;16.51;100.00
41898;BME280;27576;53.366;-1.498;2023-07-29T00:05:11;98944.72;;;16.51;100.00
41898;BME280;27576;53.366;-1.498;2023-07-29T00:07:36;98947.28;;;16.52;100.00
41898;BME280;27576;53.366;-1.498;2023-07-29T00:10:02;98945.69;;;16.48;100.00
41898;BME280;27576;53.366;-1.498;2023-07-29T00:12:28;98943.97;;;16.47;100.00
41898;BME280;27576;53.366;-1.498;2023-07-29T00:14:54;98933.66;;;16.42;100.00
41898;BME280;27576;53.366;-1.498;2023-07-29T00:17:20;98946.47;;;16.50;100.00
41898;BME280;27576;53.366;-1.498;2023-07-29T00:19:46;98942.16;;;16.49;100.00
41898;BME280;27576;53.366;-1.498;2023-07-29T00:22:11;98942.16;;;16.49;100.00
41898;BME280;27576;53.366;-1.498;2023-07-29T00:24:36;98921.66;;;16.37;100.00
41898;BME280;27576;53.366;-1.498;2023-07-29T00:27:02;98942.25;;;16.46;100.00
41898;BME280;27576;53.366;-1.498;2023-07-29T00:29:27;98934.47;;;16.44;100.00
41898;BME280;27576;53.366;-1.498;2023-07-29T00:31:52;98928.34;;;16.45;100.00
41898;BME280;27576;53.366;-1.498;2023-07-29T00:34:18;98931.03;;;16.42;100.00
41898;BME280;27576;53.366;-1.498;2023-07-29T00:36:45;98928.59;;;16.38;100.00
41898;BME280;27576;53.366;-1.498;2023-07-29T00:39:10;98914.34;;;16.22;100.00
41898;BME280;27576;53.366;-1.498;2023-07-29T00:41:36;98918.31;;;16.33;100.00
41898;BME280;27576;53.366;-1.498;2023-07-29T00:44:01;98918.38;;;16.32;100.00
41898;BME280;27576;53.366;-1.498;2023-07-29T00:46:28;98913.34;;;16.26;100.00
41898;BME280;27576;53.366;-1.498;2023-07-29T00:48:54;98919.41;;;16.26;100.00
41898;BME280;27576;53.366;-1.498;2023-07-29T00:51:20;98889.53;;;16.08;100.00
41898;BME280;27576;53.366;-1.498;2023-07-29T00:53:45;98882.81;;;16.01;100.00
41898;BME280;27576;53.366;-1.498;2023-07-29T00:56:11;98908.53;;;16.13;100.00
41898;BME280;27576;53.366;-1.498;2023-07-29T00:58:36;98912.69;;;16.19;100.00
41898;BME280;27576;53.366;-1.498;2023-07-29T01:01:02;98910.13;;;16.17;100.00
41898;BME280;27576;53.366;-1.498;2023-07-29T01:03:27;98895.78;;;16.04;100.00
41898;BME280;27576;53.366;-1.498;2023-07-29T01:06:10;98913.66;;;16.16;100.00
41898;BME280;27576;53.366;-1.498;2023-07-29T01:08:56;98918.06;;;16.14;100.00
41898;BME280;27576;53.366;-1.498;2023-07-29T01:11:30;98924.16;;;16.15;100.00
41898;BME280;27576;53.366;-1.498;2023-07-29T01:14:04;98903.56;;;16.06;100.00
41898;BME280;27576;53.366;-1.498;2023-07-29T01:16:35;98911.13;;;16.13;100.00
41898;BME280;27576;53.366;-1.498;2023-07-29T01:19:05;98925.06;;;16.14;100.00
41898;BME280;27576;53.366;-1.498;2023-07-29T01:21:33;98916.31;;;16.15;100.00
41898;BME280;27576;53.366;-1.498;2023-07-29T01:24:00;98915.44;;;16.14;100.00
41898;BME280;27576;53.366;-1.498;2023-07-29T01:26:25;98889.84;;;15.99;100.00
41898;BME280;27576;53.366;-1.498;2023-07-29T01:28:51;98903.63;;;16.04;100.00
41898;BME280;27576;53.366;-1.498;2023-07-29T01:31:25;98908.63;;;16.10;100.00
41898;BME280;27576;53.366;-1.498;2023-07-29T01:34:05;98878.69;;;15.94;100.00
41898;BME280;27576;53.366;-1.498;2023-07-29T01:36:32;98890.72;;;16.00;100.00
41898;BME280;27576;53.366;-1.498;2023-07-29T01:38:59;98903.56;;;16.06;100.00
41898;BME280;27576;53.366;-1.498;2023-07-29T01:41:27;98911.38;;;16.07;100.00
41898;BME280;27576;53.366;-1.498;2023-07-29T01:43:54;98906.16;;;16.06;100.00
41898;BME280;27576;53.366;-1.498;2023-07-29T01:46:20;98883.22;;;15.89;100.00
41898;BME280;27576;53.366;-1.498;2023-07-29T01:48:46;98888.34;;;15.92;100.00
41898;BME280;27576;53.366;-1.498;2023-07-29T01:51:12;98882.38;;;15.88;100.00
41898;BME280;27576;53.366;-1.498;2023-07-29T01:53:38;98877.50;;;15.78;100.00
41898;BME280;27576;53.366;-1.498;2023-07-29T01:56:03;98885.19;;;15.82;100.00
41898;BME280;27576;53.366;-1.498;2023-07-29T01:58:28;98885.25;;;15.81;100.00
41898;BME280;27576;53.366;-1.498;2023-07-29T02:00:54;98884.56;;;15.74;100.00
41898;BME280;27576;53.366;-1.498;2023-07-29T02:03:19;98884.56;;;15.74;100.00
41898;BME280;27576;53.366;-1.498;2023-07-29T02:05:44;98883.81;;;15.70;100.00
41898;BME280;27576;53.366;-1.498;2023-07-29T02:08:11;98877.19;;;15.60;100.00
41898;BME280;27576;53.366;-1.498;2023-07-29T02:10:36;98886.88;;;15.55;100.00
41898;BME280;27576;53.366;-1.498;2023-07-29T02:13:03;98895.44;;;15.60;100.00
41898;BME280;27576;53.366;-1.498;2023-07-29T02:15:29;98888.03;;;15.46;100.00
41898;BME280;27576;53.366;-1.498;2023-07-29T02:17:54;98892.34;;;15.47;100.00
41898;BME280;27576;53.366;-1.498;2023-07-29T02:20:20;98888.97;;;15.44;100.00
41898;BME280;27576;53.366;-1.498;2023-07-29T02:22:45;98877.06;;;15.35;100.00
41898;BME280;27576;53.366;-1.498;2023-07-29T02:25:11;98885.00;;;15.32;100.00
41898;BME280;27576;53.366;-1.498;2023-07-29T02:27:36;98896.94;;;15.41;100.00
41898;BME280;27576;53.366;-1.498;2023-07-29T02:30:02;98891.19;;;15.30;100.00
41898;BME280;27576;53.366;-1.498;2023-07-29T02:32:28;98894.63;;;15.30;100.00
41898;BME280;27576;53.366;-1.498;2023-07-29T02:34:54;98893.59;;;15.36;100.00
41898;BME280;27576;53.366;-1.498;2023-07-29T02:37:19;98874.00;;;15.22;100.00
41898;BME280;27576;53.366;-1.498;2023-07-29T02:39:45;98885.06;;;15.31;100.00
41898;BME280;27576;53.366;-1.498;2023-07-29T02:42:10;98886.50;;;15.41;100.00
41898;BME280;27576;53.366;-1.498;2023-07-29T02:44:36;98871.94;;;15.32;100.00
41898;BME280;27576;53.366;-1.498;2023-07-29T02:47:01;98863.09;;;15.38;100.00
41898;BME280;27576;53.366;-1.498;2023-07-29T02:49:27;98882.75;;;15.48;100.00
41898;BME280;27576;53.366;-1.498;2023-07-29T02:51:52;98851.81;;;15.36;100.00
41898;BME280;27576;53.366;-1.498;2023-07-29T02:54:18;98878.34;;;15.50;100.00
41898;BME280;27576;53.366;-1.498;2023-07-29T02:56:43;98893.94;;;15.53;100.00
41898;BME280;27576;53.366;-1.498;2023-07-29T02:59:08;98877.53;;;15.48;100.00
41898;BME280;27576;53.366;-1.498;2023-07-29T03:01:34;98865.47;;;15.44;100.00
41898;BME280;27576;53.366;-1.498;2023-07-29T03:03:59;98861.88;;;15.48;100.00
41898;BME280;27576;53.366;-1.498;2023-07-29T03:06:24;98867.84;;;15.52;100.00
41898;BME280;27576;53.366;-1.498;2023-07-29T03:08:50;98865.13;;;15.56;100.00
41898;BME280;27576;53.366;-1.498;2023-07-29T03:11:16;98832.69;;;15.37;100.00
41898;BME280;27576;53.366;-1.498;2023-07-29T03:13:42;98859.03;;;15.56;100.00
41898;BME280;27576;53.366;-1.498;2023-07-29T03:16:16;98862.53;;;15.55;100.00
41898;BME280;27576;53.366;-1.498;2023-07-29T03:18:42;98830.16;;;15.34;100.00
41898;BME280;27576;53.366;-1.498;2023-07-29T03:21:09;98861.03;;;15.47;100.00
41898;BME280;27576;53.366;-1.498;2023-07-29T03:23:35;98858.47;;;15.46;100.00
41898;BME280;27576;53.366;-1.498;2023-07-29T03:26:02;98840.25;;;15.44;100.00
41898;BME280;27576;53.366;-1.498;2023-07-29T03:28:35;98861.22;;;15.41;100.00
41898;BME280;27576;53.366;-1.498;2023-07-29T03:31:00;98851.81;;;15.36;100.00
41898;BME280;27576;53.366;-1.498;2023-07-29T03:33:26;98846.06;;;15.26;100.00
41898;BME280;27576;53.366;-1.498;2023-07-29T03:35:54;98828.81;;;15.20;100.00
41898;BME280;27576;53.366;-1.498;2023-07-29T03:38:19;98844.34;;;15.25;100.00
41898;BME280;27576;53.366;-1.498;2023-07-29T03:40:44;98812.53;;;15.12;100.00
41898;BME280;27576;53.366;-1.498;2023-07-29T03:43:10;98802.41;;;15.03;100.00
41898;BME280;27576;53.366;-1.498;2023-07-29T03:45:36;98855.53;;;15.29;100.00
41898;BME280;27576;53.366;-1.498;2023-07-29T03:48:02;98858.19;;;15.27;100.00
41898;BME280;27576;53.366;-1.498;2023-07-29T03:50:28;98853.13;;;15.22;100.00
41898;BME280;27576;53.366;-1.498;2023-07-29T03:52:54;98853.22;;;15.19;100.00
41898;BME280;27576;53.366;-1.498;2023-07-29T03:55:20;98833.72;;;15.03;100.00
41898;BME280;27576;53.366;-1.498;2023-07-29T03:57:45;98853.28;;;15.16;100.00
41898;BME280;27576;53.366;-1.498;2023-07-29T04:00:11;98829.41;;;15.02;100.00
41898;BME280;27576;53.366;-1.498;2023-07-29T04:02:37;98859.63;;;15.09;100.00
41898;BME280;27576;53.366;-1.498;2023-07-29T04:05:06;98856.28;;;15.04;100.00
41898;BME280;27576;53.366;-1.498;2023-07-29T04:07:33;98858.19;;;14.99;100.00
41898;BME280;27576;53.366;-1.498;2023-07-29T04:09:59;98857.41;;;14.95;100.00
41898;BME280;27576;53.366;-1.498;2023-07-29T04:12:24;98826.63;;;14.79;100.00
41898;BME280;27576;53.366;-1.498;2023-07-29T04:14:50;98845.53;;;14.85;100.00
41898;BME280;27576;53.366;-1.498;2023-07-29T04:17:15;98845.66;;;14.82;100.00
41898;BME280;27576;53.366;-1.498;2023-07-29T04:19:40;98863.75;;;14.87;100.00
41898;BME280;27576;53.366;-1.498;2023-07-29T04:22:06;98858.63;;;14.84;100.00
41898;BME280;27576;53.366;-1.498;2023-07-29T04:24:31;98854.31;;;14.83;100.00
41898;BME280;27576;53.366;-1.498;2023-07-29T04:26:57;98850.91;;;14.81;100.00
41898;BME280;27576;53.366;-1.498;2023-07-29T04:29:22;98825.47;;;14.59;100.00
41898;BME280;27576;53.366;-1.498;2023-07-29T04:31:49;98862.22;;;14.80;100.00
41898;BME280;27576;53.366;-1.498;2023-07-29T04:34:14;98852.03;;;14.72;100.00
41898;BME280;27576;53.366;-1.498;2023-07-29T04:36:40;98857.09;;;14.77;100.00
41898;BME280;27576;53.366;-1.498;2023-07-29T04:39:05;98841.91;;;14.61;100.00
41898;BME280;27576;53.366;-1.498;2023-07-29T04:41:30;98862.31;;;14.77;100.00
41898;BME280;27576;53.366;-1.498;2023-07-29T04:43:56;98861.47;;;14.76;100.00
41898;BME280;27576;53.366;-1.498;2023-07-29T04:46:21;98859.00;;;14.71;100.00
41898;BME280;27576;53.366;-1.498;2023-07-29T04:48:46;98851.03;;;14.76;100.00
41898;BME280;27576;53.366;-1.498;2023-07-29T04:51:12;98856.22;;;14.78;100.00
41898;BME280;27576;53.366;-1.498;2023-07-29T04:53:37;98857.94;;;14.77;100.00
41898;BME280;27576;53.366;-1.498;2023-07-29T04:56:03;98859.69;;;14.78;100.00
41898;BME280;27576;53.366;-1.498;2023-07-29T04:58:28;98858.84;;;14.78;100.00
41898;BME280;27576;53.366;-1.498;2023-07-29T05:00:55;98846.94;;;14.67;100.00
41898;BME280;27576;53.366;-1.498;2023-07-29T05:03:21;98860.53;;;14.79;100.00
41898;BME280;27576;53.366;-1.498;2023-07-29T05:05:46;98852.06;;;14.70;100.00
41898;BME280;27576;53.366;-1.498;2023-07-29T05:08:11;98872.66;;;14.80;100.00
41898;BME280;27576;53.366;-1.498;2023-07-29T05:10:37;98864.97;;;14.75;100.00
41898;BME280;27576;53.366;-1.498;2023-07-29T05:13:02;98871.81;;;14.79;100.00
41898;BME280;27576;53.366;-1.498;2023-07-29T05:15:27;98878.78;;;14.79;100.00
41898;BME280;27576;53.366;-1.498;2023-07-29T05:17:53;98850.53;;;14.63;100.00
41898;BME280;27576;53.366;-1.498;2023-07-29T05:20:21;98883.94;;;14.80;100.00
41898;BME280;27576;53.366;-1.498;2023-07-29T05:22:46;98877.78;;;14.83;100.00
41898;BME280;27576;53.366;-1.498;2023-07-29T05:25:12;98870.75;;;14.86;100.00
41898;BME280;27576;53.366;-1.498;2023-07-29T05:27:37;98877.50;;;14.92;100.00
41898;BME280;27576;53.366;-1.498;2023-07-29T05:30:03;98868.84;;;14.91;100.00
41898;BME280;27576;53.366;-1.498;2023-07-29T05:32:28;98881.72;;;14.97;100.00
41898;BME280;27576;53.366;-1.498;2023-07-29T05:34:54;98859.34;;;14.89;100.00
41898;BME280;27576;53.366;-1.498;2023-07-29T05:37:20;98855.81;;;14.91;100.00
41898;BME280;27576;53.366;-1.498;2023-07-29T05:39:45;98868.84;;;14.91;100.00
41898;BME280;27576;53.366;-1.498;2023-07-29T05:42:10;98878.34;;;14.94;100.00
41898;BME280;27576;53.366;-1.498;2023-07-29T05:44:36;98880.66;;;15.03;100.00
41898;BME280;27576;53.366;-1.498;2023-07-29T05:47:01;98872.91;;;15.02;100.00
41898;BME280;27576;53.366;-1.498;2023-07-29T05:49:26;98867.94;;;14.92;100.00
41898;BME280;27576;53.366;-1.498;2023-07-29T05:51:52;98860.25;;;14.88;100.00
41898;BME280;27576;53.366;-1.498;2023-07-29T05:54:18;98883.34;;;15.00;100.00
41898;BME280;27576;53.366;-1.498;2023-07-29T05:56:44;98879.13;;;14.96;100.00
41898;BME280;27576;53.366;-1.498;2023-07-29T05:59:09;98880.09;;;14.93;100.00
41898;BME280;27576;53.366;-1.498;2023-07-29T06:01:34;98868.97;;;14.87;100.00
41898;BME280;27576;53.366;-1.498;2023-07-29T06:04:00;98875.91;;;14.88;100.00
41898;BME280;27576;53.366;-1.498;2023-07-29T06:06:26;98859.69;;;14.78;100.00
41898;BME280;27576;53.366;-1.498;2023-07-29T06:08:55;98864.84;;;14.80;100.00
41898;BME280;27576;53.366;-1.498;2023-07-29T06:11:20;98885.41;;;14.89;100.00
41898;BME280;27576;53.366;-1.498;2023-07-29T06:13:47;98866.50;;;14.82;100.00
41898;BME280;27576;53.366;-1.498;2023-07-29T06:16:13;98876.59;;;14.93;100.00
41898;BME280;27576;53.366;-1.498;2023-07-29T06:18:38;98850.19;;;14.76;100.00
41898;BME280;27576;53.366;-1.498;2023-07-29T06:21:03;98879.22;;;14.93;100.00
41898;BME280;27576;53.366;-1.498;2023-07-29T06:23:32;98888.81;;;14.92;100.00
41898;BME280;27576;53.366;-1.498;2023-07-29T06:25:58;98846.88;;;14.70;100.00
41898;BME280;27576;53.366;-1.498;2023-07-29T06:28:25;98857.00;;;14.80;100.00
41898;BME280;27576;53.366;-1.498;2023-07-29T06:30:51;98843.06;;;14.81;100.00
41898;BME280;27576;53.366;-1.498;2023-07-29T06:33:16;98879.63;;;15.09;100.00
41898;BME280;27576;53.366;-1.498;2023-07-29T06:35:41;98899.56;;;15.11;100.00
41898;BME280;27576;53.366;-1.498;2023-07-29T06:38:07;98886.59;;;15.08;100.00
41898;BME280;27576;53.366;-1.498;2023-07-29T06:40:32;98883.97;;;15.10;100.00
41898;BME280;27576;53.366;-1.498;2023-07-29T06:42:57;98860.94;;;14.94;100.00
41898;BME280;27576;53.366;-1.498;2023-07-29T06:45:23;98853.13;;;14.93;100.00
41898;BME280;27576;53.366;-1.498;2023-07-29T06:47:48;98892.44;;;15.16;100.00
41898;BME280;27576;53.366;-1.498;2023-07-29T06:50:13;98878.75;;;15.08;100.00
41898;BME280;27576;53.366;-1.498;2023-07-29T06:52:39;98853.72;;;15.03;100.00
41898;BME280;27576;53.366;-1.498;2023-07-29T06:55:05;98886.81;;;15.30;100.00
41898;BME280;27576;53.366;-1.498;2023-07-29T06:57:31;98871.31;;;15.26;100.00
41898;BME280;27576;53.366;-1.498;2023-07-29T06:59:56;98889.84;;;15.44;100.00
41898;BME280;27576;53.366;-1.498;2023-07-29T07:02:22;98894.94;;;15.49;100.00
41898;BME280;27576;53.366;-1.498;2023-07-29T07:04:47;98891.22;;;15.56;100.00
41898;BME280;27576;53.366;-1.498;2023-07-29T07:07:12;98884.03;;;15.63;100.00
41898;BME280;27576;53.366;-1.498;2023-07-29T07:09:38;98871.78;;;15.66;100.00
41898;BME280;27576;53.366;-1.498;2023-07-29T07:12:03;98888.94;;;15.74;100.00
41898;BME280;27576;53.366;-1.498;2023-07-29T07:14:29;98869.66;;;15.78;100.00
41898;BME280;27576;53.366;-1.498;2023-07-29T07:16:54;98875.28;;;15.92;100.00
41898;BME280;27576;53.366;-1.498;2023-07-29T07:19:19;98855.59;;;15.82;100.00
41898;BME280;27576;53.366;-1.498;2023-07-29T07:21:45;98836.63;;;15.77;100.00
41898;BME280;27576;53.366;-1.498;2023-07-29T07:24:10;98877.91;;;16.17;100.00
41898;BME280;27576;53.366;-1.498;2023-07-29T07:26:36;98879.09;;;16.33;100.00
41898;BME280;27576;53.366;-1.498;2023-07-29T07:29:01;98870.78;;;16.47;100.00
41898;BME280;27576;53.366;-1.498;2023-07-29T07:31:26;98862.00;;;16.48;100.00
41898;BME280;27576;53.366;-1.498;2023-07-29T07:33:52;98865.66;;;16.67;100.00
41898;BME280;27576;53.366;-1.498;2023-07-29T07:36:17;98881.84;;;16.79;100.00
41898;BME280;27576;53.366;-1.498;2023-07-29T07:38:42;98877.38;;;16.82;100.00
41898;BME280;27576;53.366;-1.498;2023-07-29T07:41:08;98878.31;;;16.80;100.00
41898;BME280;27576;53.366;-1.498;2023-07-29T07:43:33;98875.16;;;16.70;100.00
41898;BME280;27576;53.366;-1.498;2023-07-29T07:46:00;98867.25;;;16.72;100.00
41898;BME280;27576;53.366;-1.498;2023-07-29T07:48:27;98859.63;;;16.65;100.00
41898;BME280;27576;53.366;-1.498;2023-07-29T07:50:53;98883.63;;;16.78;100.00
41898;BME280;27576;53.366;-1.498;2023-07-29T07:53:18;98886.38;;;16.74;100.00
41898;BME280;27576;53.366;-1.498;2023-07-29T07:55:45;98889.88;;;16.74;100.00
41898;BME280;27576;53.366;-1.498;2023-07-29T07:58:10;98897.66;;;16.76;100.00
41898;BME280;27576;53.366;-1.498;2023-07-29T08:00:35;98889.88;;;16.74;100.00
41898;BME280;27576;53.366;-1.498;2023-07-29T08:03:01;98892.94;;;16.85;100.00
41898;BME280;27576;53.366;-1.498;2023-07-29T08:05:26;98868.97;;;16.74;100.00
41898;BME280;27576;53.366;-1.498;2023-07-29T08:07:51;98891.03;;;16.90;100.00
41898;BME280;27576;53.366;-1.498;2023-07-29T08:10:17;98894.47;;;16.91;100.00
41898;BME280;27576;53.366;-1.498;2023-07-29T08:12:42;98865.34;;;16.77;100.00
41898;BME280;27576;53.366;-1.498;2023-07-29T08:15:08;98872.25;;;16.79;100.00
41898;BME280;27576;53.366;-1.498;2023-07-29T08:17:33;98895.22;;;16.95;100.00
41898;BME280;27576;53.366;-1.498;2023-07-29T08:19:58;98890.56;;;17.03;100.00
41898;BME280;27576;53.366;-1.498;2023-07-29T08:22:24;98893.94;;;17.05;100.00
41898;BME280;27576;53.366;-1.498;2023-07-29T08:24:49;98877.75;;;16.95;100.00
41898;BME280;27576;53.366;-1.498;2023-07-29T08:27:15;98883.00;;;16.95;100.00
41898;BME280;27576;53.366;-1.498;2023-07-29T08:29:40;98888.78;;;17.03;100.00
41898;BME280;27576;53.366;-1.498;2023-07-29T08:32:05;98876.91;;;16.95;100.00
41898;BME280;27576;53.366;-1.498;2023-07-29T08:34:31;98856.25;;;16.87;100.00
41898;BME280;27576;53.366;-1.498;2023-07-29T08:36:57;98887.97;;;17.01;98.56
41898;BME280;27576;53.366;-1.498;2023-07-29T08:39:22;98888.84;;;17.02;100.00
41898;BME280;27576;53.366;-1.498;2023-07-29T08:42:09;98884.34;;;17.05;99.35
41898;BME280;27576;53.366;-1.498;2023-07-29T08:44:47;98865.34;;;17.00;99.97
41898;BME280;27576;53.366;-1.498;2023-07-29T08:47:14;98891.00;;;17.36;99.93
41898;BME280;27576;53.366;-1.498;2023-07-29T08:49:39;98893.88;;;17.52;98.61
41898;BME280;27576;53.366;-1.498;2023-07-29T08:52:07;98863.13;;;17.57;97.14
41898;BME280;27576;53.366;-1.498;2023-07-29T08:54:33;98890.91;;;17.83;95.70
41898;BME280;27576;53.366;-1.498;2023-07-29T08:56:59;98864.59;;;17.86;90.68
41898;BME280;27576;53.366;-1.498;2023-07-29T08:59:25;98883.22;;;18.00;88.91
41898;BME280;27576;53.366;-1.498;2023-07-29T09:01:52;98899.84;;;17.99;88.28
41898;BME280;27576;53.366;-1.498;2023-07-29T09:04:20;98892.44;;;17.88;84.22
41898;BME280;27576;53.366;-1.498;2023-07-29T09:06:47;98868.31;;;17.58;83.45
41898;BME280;27576;53.366;-1.498;2023-07-29T09:09:13;98891.81;;;17.60;84.89
41898;BME280;27576;53.366;-1.498;2023-07-29T09:11:38;98860.97;;;17.45;86.46
41898;BME280;27576;53.366;-1.498;2023-07-29T09:14:03;98883.16;;;17.80;83.54
41898;BME280;27576;53.366;-1.498;2023-07-29T09:16:29;98874.03;;;17.90;83.66
41898;BME280;27576;53.366;-1.498;2023-07-29T09:18:55;98861.72;;;17.92;82.21
41898;BME280;27576;53.366;-1.498;2023-07-29T09:21:23;98893.19;;;18.33;81.46
41898;BME280;27576;53.366;-1.498;2023-07-29T09:23:50;98890.66;;;18.50;79.46
41898;BME280;27576;53.366;-1.498;2023-07-29T09:26:25;98902.59;;;18.57;74.61
41898;BME280;27576;53.366;-1.498;2023-07-29T09:28:55;98891.00;;;18.63;75.14
41898;BME280;27576;53.366;-1.498;2023-07-29T09:31:22;98870.88;;;18.63;78.03
41898;BME280;27576;53.366;-1.498;2023-07-29T09:33:47;98887.00;;;18.75;75.54
41898;BME280;27576;53.366;-1.498;2023-07-29T09:36:13;98884.59;;;18.89;77.74
41898;BME280;27576;53.366;-1.498;2023-07-29T09:38:39;98899.50;;;18.88;75.54
41898;BME280;27576;53.366;-1.498;2023-07-29T09:41:05;98895.91;;;18.91;74.90
41898;BME280;27576;53.366;-1.498;2023-07-29T09:43:32;98885.53;;;18.88;72.89
41898;BME280;27576;53.366;-1.498;2023-07-29T09:46:01;98895.66;;;18.77;75.18
41898;BME280;27576;53.366;-1.498;2023-07-29T09:48:27;98897.75;;;18.69;74.47
41898;BME280;27576;53.366;-1.498;2023-07-29T09:50:54;98887.72;;;18.58;73.87
41898;BME280;27576;53.366;-1.498;2023-07-29T09:53:20;98891.38;;;18.54;75.98
41898;BME280;27576;53.366;-1.498;2023-07-29T09:55:47;98873.50;;;18.63;75.40
41898;BME280;27576;53.366;-1.498;2023-07-29T09:58:13;98875.16;;;18.85;73.63
41898;BME280;27576;53.366;-1.498;2023-07-29T10:00:39;98889.16;;;19.04;72.74
41898;BME280;27576;53.366;-1.498;2023-07-29T10:03:06;98874.59;;;19.16;74.18
41898;BME280;27576;53.366;-1.498;2023-07-29T10:05:32;98879.00;;;19.34;73.42
41898;BME280;27576;53.366;-1.498;2023-07-29T10:08:00;98882.50;;;19.52;69.90
41898;BME280;27576;53.366;-1.498;2023-07-29T10:10:27;98858.00;;;19.52;70.97
41898;BME280;27576;53.366;-1.498;2023-07-29T10:12:53;98889.25;;;19.77;71.24
41898;BME280;27576;53.366;-1.498;2023-07-29T10:15:20;98844.03;;;19.70;70.69
41898;BME280;27576;53.366;-1.498;2023-07-29T10:17:46;98890.81;;;19.98;69.37
41898;BME280;27576;53.366;-1.498;2023-07-29T10:20:12;98876.63;;;19.83;66.91
41898;BME280;27576;53.366;-1.498;2023-07-29T10:22:40;98867.75;;;19.50;66.29
41898;BME280;27576;53.366;-1.498;2023-07-29T10:25:15;98902.75;;;19.50;67.04
41898;BME280;27576;53.366;-1.498;2023-07-29T10:28:00;98891.56;;;19.28;68.18
41898;BME280;27576;53.366;-1.498;2023-07-29T10:30:28;98894.19;;;19.09;67.62
41898;BME280;27576;53.366;-1.498;2023-07-29T10:32:56;98881.44;;;18.82;68.01
41898;BME280;27576;53.366;-1.498;2023-07-29T10:35:23;98893.81;;;18.79;67.56
41898;BME280;27576;53.366;-1.498;2023-07-29T10:37:48;98893.69;;;18.61;68.93
41898;BME280;27576;53.366;-1.498;2023-07-29T10:40:16;98921.06;;;18.76;70.83
41898;BME280;27576;53.366;-1.498;2023-07-29T10:43:03;98882.03;;;18.48;71.44
41898;BME280;27576;53.366;-1.498;2023-07-29T10:45:39;98914.16;;;18.53;72.21
41898;BME280;27576;53.366;-1.498;2023-07-29T10:48:12;98902.69;;;18.35;72.38
41898;BME280;27576;53.366;-1.498;2023-07-29T10:50:38;98915.75;;;18.37;72.31
41898;BME280;27576;53.366;-1.498;2023-07-29T10:53:04;98906.94;;;18.38;73.78
41898;BME280;27576;53.366;-1.498;2023-07-29T10:55:30;98924.00;;;18.48;73.33
41898;BME280;27576;53.366;-1.498;2023-07-29T10:58:13;98909.56;;;18.38;73.77
41898;BME280;27576;53.366;-1.498;2023-07-29T11:00:43;98889.84;;;18.29;74.92
41898;BME280;27576;53.366;-1.498;2023-07-29T11:03:09;98902.88;;;18.31;76.63
41898;BME280;27576;53.366;-1.498;2023-07-29T11:05:52;98886.28;;;18.10;77.54
41898;BME280;27576;53.366;-1.498;2023-07-29T11:08:30;98902.75;;;18.13;77.04
41898;BME280;27576;53.366;-1.498;2023-07-29T11:11:07;98886.09;;;17.94;77.61
41898;BME280;27576;53.366;-1.498;2023-07-29T11:13:37;98918.25;;;18.20;78.17
41898;BME280;27576;53.366;-1.498;2023-07-29T11:16:03;98915.88;;;18.34;78.76
41898;BME280;27576;53.366;-1.498;2023-07-29T11:18:33;98915.25;;;18.68;78.74
41898;BME280;27576;53.366;-1.498;2023-07-29T11:20:59;98911.78;;;18.88;76.06
41898;BME280;27576;53.366;-1.498;2023-07-29T11:23:30;98915.16;;;18.90;76.23
41898;BME280;27576;53.366;-1.498;2023-07-29T11:25:56;98926.00;;;19.03;76.33
41898;BME280;27576;53.366;-1.498;2023-07-29T11:28:22;98917.34;;;19.20;73.34
41898;BME280;27576;53.366;-1.498;2023-07-29T11:30:49;98885.47;;;19.27;72.01
41898;BME280;27576;53.366;-1.498;2023-07-29T11:33:17;98917.16;;;19.60;69.61
41898;BME280;27576;53.366;-1.498;2023-07-29T11:35:43;98919.75;;;19.62;69.93
41898;BME280;27576;53.366;-1.498;2023-07-29T11:38:15;98925.00;;;19.62;69.86
41898;BME280;27576;53.366;-1.498;2023-07-29T11:40:40;98935.53;;;19.62;70.81
41898;BME280;27576;53.366;-1.498;2023-07-29T11:43:05;98936.06;;;19.69;68.95
41898;BME280;27576;53.366;-1.498;2023-07-29T11:45:31;98929.19;;;19.47;69.64
41898;BME280;27576;53.366;-1.498;2023-07-29T11:47:56;98937.91;;;19.29;69.77
41898;BME280;27576;53.366;-1.498;2023-07-29T11:50:21;98926.69;;;18.87;71.36
41898;BME280;27576;53.366;-1.498;2023-07-29T11:52:47;98940.72;;;18.86;72.08
41898;BME280;27576;53.366;-1.498;2023-07-29T11:55:14;98936.16;;;18.90;70.31
41898;BME280;27576;53.366;-1.498;2023-07-29T11:57:41;98942.88;;;19.16;71.14
41898;BME280;27576;53.366;-1.498;2023-07-29T12:00:09;98927.84;;;19.38;67.87
41898;BME280;27576;53.366;-1.498;2023-07-29T12:02:39;98927.84;;;19.57;66.78
41898;BME280;27576;53.366;-1.498;2023-07-29T12:05:06;98931.78;;;19.85;64.64
41898;BME280;27576;53.366;-1.498;2023-07-29T12:07:32;98929.31;;;19.99;62.44
41898;BME280;27576;53.366;-1.498;2023-07-29T12:09:58;98909.13;;;20.00;60.42
41898;BME280;27576;53.366;-1.498;2023-07-29T12:12:24;98912.47;;;20.21;60.46
41898;BME280;27576;53.366;-1.498;2023-07-29T12:14:49;98924.28;;;20.47;59.80
41898;BME280;27576;53.366;-1.498;2023-07-29T12:17:15;98914.09;;;20.58;58.93
41898;BME280;27576;53.366;-1.498;2023-07-29T12:19:41;98924.69;;;20.74;57.69
41898;BME280;27576;53.366;-1.498;2023-07-29T12:22:08;98899.03;;;20.77;60.96
41898;BME280;27576;53.366;-1.498;2023-07-29T12:24:39;98920.84;;;21.13;59.83
41898;BME280;27576;53.366;-1.498;2023-07-29T12:27:05;98890.19;;;21.12;59.13
41898;BME280;27576;53.366;-1.498;2023-07-29T12:29:31;98924.81;;;21.37;58.31
41898;BME280;27576;53.366;-1.498;2023-07-29T12:32:01;98919.06;;;21.46;58.96
41898;BME280;27576;53.366;-1.498;2023-07-29T12:34:28;98905.19;;;21.43;58.75
41898;BME280;27576;53.366;-1.498;2023-07-29T12:36:55;98926.00;;;21.63;55.75
41898;BME280;27576;53.366;-1.498;2023-07-29T12:39:29;98898.03;;;21.45;55.21